Time;durP1;ratioP1;P1;durP2;ratioP2;P2;SDS_P1;SDS_P2;PMS_P1;PMS_P2;Temp;Humidity;BMP_temperature;BMP_pressure;BME280_temperature;BME280_humidity;BME280_pressure;Samples;Min_cycle;Max_cycle;Signal;HPM_P1;HPM_P2
2021/01/12 00:00:17;;;;;;;0.32;0.32;;;0.40;99.90;;;;;;5045065;28;20196;-71
2021/01/12 00:02:43;;;;;;;0.30;0.30;;;0.40;99.90;;;;;;5053098;28;20571;-69
2021/01/12 00:05:09;;;;;;;0.30;0.30;;;0.40;99.90;;;;;;5053362;28;20186;-68
2021/01/12 00:07:35;;;;;;;0.30;0.30;;;0.40;99.90;;;;;;5051850;28;20193;-68
2021/01/12 00:10:01;;;;;;;0.30;0.30;;;0.40;99.90;;;;;;5050912;28;20180;-68
2021/01/12 00:12:27;;;;;;;0.40;0.40;;;0.40;99.90;;;;;;5052851;28;20961;-70
2021/01/12 00:14:52;;;;;;;0.30;0.30;;;0.40;99.90;;;;;;5053558;28;20400;-70
2021/01/12 00:17:18;;;;;;;0.30;0.30;;;0.40;99.90;;;;;;5053260;28;20579;-69
2021/01/12 00:19:44;;;;;;;0.30;0.30;;;0.30;99.90;;;;;;5053350;28;20200;-69
2021/01/12 00:22:14;;;;;;;0.30;0.30;;;0.20;99.90;;;;;;5052548;28;20276;-69
2021/01/12 00:24:50;;;;;;;0.30;0.30;;;0.10;99.90;;;;;;5052442;28;20424;-68
2021/01/12 00:27:19;;;;;;;0.30;0.30;;;0.10;99.90;;;;;;5052903;28;20189;-69
2021/01/12 00:29:44;;;;;;;0.30;0.30;;;0.00;99.90;;;;;;5053107;28;20256;-69
2021/01/12 00:32:17;;;;;;;0.30;0.30;;;0.00;99.90;;;;;;5040507;28;20626;-70
2021/01/12 00:34:43;;;;;;;0.40;0.40;;;0.00;99.90;;;;;;5033406;28;20177;-70
2021/01/12 00:37:08;;;;;;;0.30;0.30;;;0.10;99.90;;;;;;5046846;28;20713;-68
2021/01/12 00:39:34;;;;;;;0.30;0.30;;;0.10;99.90;;;;;;5053121;28;20256;-69
2021/01/12 00:42:00;;;;;;;0.30;0.30;;;0.10;99.90;;;;;;5052397;28;20201;-68
2021/01/12 00:44:26;;;;;;;0.30;0.30;;;0.20;99.90;;;;;;5053166;28;20408;-70
2021/01/12 00:46:53;;;;;;;1.27;1.10;;;0.20;99.90;;;;;;5050580;28;20638;-68
2021/01/12 00:49:20;;;;;;;0.30;0.30;;;0.30;99.90;;;;;;5051686;28;20181;-69
2021/01/12 00:51:47;;;;;;;1.05;0.95;;;0.30;99.90;;;;;;5051029;28;20226;-70
2021/01/12 00:54:14;;;;;;;0.40;0.40;;;0.40;99.90;;;;;;5050591;28;20169;-68
2021/01/12 00:56:40;;;;;;;0.50;0.50;;;0.40;99.90;;;;;;5045668;28;20537;-70
2021/01/12 00:59:06;;;;;;;0.40;0.40;;;0.40;99.90;;;;;;5053071;28;20159;-69
2021/01/12 01:01:33;;;;;;;0.30;0.30;;;0.40;99.90;;;;;;5052175;28;20198;-71
2021/01/12 01:03:59;;;;;;;0.30;0.30;;;0.40;99.90;;;;;;5052767;28;20162;-69
2021/01/12 01:06:25;;;;;;;0.30;0.30;;;0.50;99.90;;;;;;5052788;28;20266;-69
2021/01/12 01:08:52;;;;;;;0.38;0.38;;;0.50;99.90;;;;;;5056817;28;20813;-68
2021/01/12 01:11:18;;;;;;;0.50;0.50;;;0.60;99.90;;;;;;5055601;28;20199;-70
2021/01/12 01:13:44;;;;;;;0.32;0.32;;;0.60;99.90;;;;;;5056466;28;20249;-71
2021/01/12 01:16:10;;;;;;;0.30;0.30;;;0.60;99.90;;;;;;5055513;28;20182;-70
2021/01/12 01:18:36;;;;;;;1.07;0.97;;;0.70;99.90;;;;;;5047315;28;20178;-69
2021/01/12 01:21:02;;;;;;;0.30;0.30;;;0.70;99.90;;;;;;5056184;28;20173;-69
2021/01/12 01:23:28;;;;;;;0.30;0.30;;;0.70;99.90;;;;;;5056511;28;20232;-70
2021/01/12 01:25:53;;;;;;;0.30;0.30;;;0.80;99.90;;;;;;5056315;28;20173;-68
2021/01/12 01:28:23;;;;;;;0.47;0.47;;;0.80;99.90;;;;;;5056427;28;20195;-70
2021/01/12 01:30:52;;;;;;;0.30;0.30;;;0.80;99.90;;;;;;5055017;28;20179;-69
2021/01/12 01:33:17;;;;;;;0.40;0.40;;;0.80;99.90;;;;;;5056326;28;20518;-69
2021/01/12 01:35:43;;;;;;;0.50;0.50;;;0.90;99.90;;;;;;5055982;28;20177;-68
2021/01/12 01:38:09;;;;;;;0.30;0.30;;;0.90;99.90;;;;;;5054912;28;20653;-68
2021/01/12 01:40:35;;;;;;;0.30;0.30;;;0.90;99.90;;;;;;5056079;28;20436;-68
2021/01/12 01:43:00;;;;;;;0.30;0.30;;;0.90;99.90;;;;;;5061021;28;20939;-69
2021/01/12 01:45:26;;;;;;;0.30;0.30;;;1.00;99.90;;;;;;5054637;28;20182;-70
2021/01/12 01:47:52;;;;;;;0.30;0.30;;;1.00;99.90;;;;;;5055911;28;20197;-70
2021/01/12 01:50:21;;;;;;;0.30;0.30;;;1.00;99.90;;;;;;5055378;28;20256;-70
2021/01/12 01:52:52;;;;;;;0.60;0.60;;;1.10;99.90;;;;;;5055787;28;20662;-68
2021/01/12 01:55:18;;;;;;;0.52;0.52;;;1.10;99.90;;;;;;5055566;28;20260;-69
2021/01/12 01:57:44;;;;;;;0.77;0.77;;;1.10;99.90;;;;;;5055930;28;20188;-69
2021/01/12 02:00:11;;;;;;;0.30;0.30;;;1.10;99.90;;;;;;5052604;28;20197;-70
2021/01/12 02:02:38;;;;;;;0.30;0.30;;;1.10;99.90;;;;;;5047300;28;20491;-67
2021/01/12 02:05:11;;;;;;;0.40;0.40;;;1.20;99.90;;;;;;5052482;28;20665;-69
2021/01/12 02:07:42;;;;;;;0.30;0.30;;;1.20;99.90;;;;;;5054372;28;20204;-69
2021/01/12 02:10:10;;;;;;;0.30;0.30;;;1.30;99.90;;;;;;5052193;28;20196;-68
2021/01/12 02:12:42;;;;;;;0.30;0.30;;;1.40;99.90;;;;;;5035432;28;20269;-68
2021/01/12 02:15:09;;;;;;;0.30;0.30;;;1.40;99.90;;;;;;5050562;28;20256;-69
2021/01/12 02:17:35;;;;;;;0.30;0.30;;;1.40;99.90;;;;;;5055058;28;20178;-70
2021/01/12 02:20:01;;;;;;;0.52;0.52;;;1.50;99.90;;;;;;5053981;28;20211;-69
2021/01/12 02:22:27;;;;;;;0.30;0.30;;;1.50;99.90;;;;;;5055386;28;20200;-68
2021/01/12 02:24:55;;;;;;;0.35;0.35;;;1.50;99.90;;;;;;5054457;28;20280;-69
2021/01/12 02:27:24;;;;;;;1.30;1.25;;;1.50;99.90;;;;;;5053436;28;20204;-70
2021/01/12 02:29:51;;;;;;;0.30;0.30;;;1.50;99.90;;;;;;5054752;28;20681;-70
2021/01/12 02:32:18;;;;;;;0.95;0.95;;;1.50;99.90;;;;;;5053789;28;20657;-70
2021/01/12 02:34:48;;;;;;;0.30;0.30;;;1.50;99.90;;;;;;5054863;28;20169;-69
2021/01/12 02:37:16;;;;;;;0.30;0.30;;;1.60;99.90;;;;;;5053602;28;20319;-69
2021/01/12 02:39:43;;;;;;;0.43;0.43;;;1.60;99.90;;;;;;5053095;28;20260;-68
2021/01/12 02:42:18;;;;;;;0.32;0.32;;;1.50;99.90;;;;;;5054100;28;20201;-70
2021/01/12 02:44:44;;;;;;;0.30;0.30;;;1.50;99.90;;;;;;5038259;28;20539;-67
2021/01/12 02:47:10;;;;;;;0.30;0.30;;;1.60;99.90;;;;;;5053440;28;20284;-69
2021/01/12 02:49:36;;;;;;;0.30;0.30;;;1.60;99.90;;;;;;5053464;28;20674;-70
2021/01/12 02:52:02;;;;;;;0.30;0.30;;;1.60;99.90;;;;;;5053976;28;20224;-69
2021/01/12 02:54:27;;;;;;;0.40;0.40;;;1.60;99.90;;;;;;5054709;28;20173;-69
2021/01/12 02:56:54;;;;;;;0.30;0.30;;;1.70;99.90;;;;;;5054831;28;20641;-68
2021/01/12 02:59:20;;;;;;;0.30;0.30;;;1.70;99.90;;;;;;5053864;28;20232;-69
2021/01/12 03:01:46;;;;;;;0.30;0.30;;;1.70;99.90;;;;;;5053936;28;20632;-70
2021/01/12 03:04:11;;;;;;;0.30;0.30;;;1.80;99.90;;;;;;5054605;28;20404;-69
2021/01/12 03:06:37;;;;;;;0.30;0.30;;;1.80;99.90;;;;;;5054251;28;20553;-71
2021/01/12 03:09:04;;;;;;;0.30;0.30;;;1.80;99.90;;;;;;5039891;28;20205;-70
2021/01/12 03:11:29;;;;;;;0.30;0.30;;;1.90;99.90;;;;;;5053811;28;20196;-71
2021/01/12 03:13:57;;;;;;;0.30;0.30;;;1.90;99.90;;;;;;5054565;28;20634;-71
2021/01/12 03:16:23;;;;;;;0.30;0.30;;;2.00;99.90;;;;;;5054041;28;20189;-71
2021/01/12 03:18:48;;;;;;;0.30;0.20;;;2.00;99.90;;;;;;5054409;28;20169;-69
2021/01/12 03:21:14;;;;;;;0.30;0.30;;;2.10;99.90;;;;;;5052186;28;20194;-71
2021/01/12 03:23:39;;;;;;;0.30;0.30;;;2.10;99.90;;;;;;5048903;28;20197;-69
2021/01/12 03:26:05;;;;;;;0.30;0.30;;;2.10;99.90;;;;;;5054002;28;20169;-70
2021/01/12 03:28:31;;;;;;;0.30;0.30;;;2.10;99.90;;;;;;5053908;28;20274;-70
2021/01/12 03:30:57;;;;;;;0.30;0.30;;;2.10;99.90;;;;;;5062032;28;20173;-71
2021/01/12 03:33:23;;;;;;;0.30;0.30;;;2.20;99.90;;;;;;5055292;28;20173;-69
2021/01/12 03:35:49;;;;;;;0.30;0.30;;;2.20;99.90;;;;;;5053943;28;20166;-69
2021/01/12 03:38:15;;;;;;;0.30;0.30;;;2.20;99.90;;;;;;5053846;28;20533;-68
2021/01/12 03:40:41;;;;;;;0.30;0.30;;;2.20;99.90;;;;;;5053422;28;20181;-70
2021/01/12 03:43:07;;;;;;;0.40;0.40;;;2.20;99.90;;;;;;5062038;28;20245;-73
2021/01/12 03:45:33;;;;;;;0.95;0.95;;;2.10;99.90;;;;;;5061654;28;20170;-71
2021/01/12 03:47:58;;;;;;;0.30;0.30;;;2.20;99.90;;;;;;5056227;28;20197;-70
2021/01/12 03:50:27;;;;;;;0.30;0.30;;;2.20;99.90;;;;;;5053814;28;20423;-71
2021/01/12 03:52:54;;;;;;;0.30;0.30;;;2.10;99.90;;;;;;5036168;28;20186;-69
2021/01/12 03:55:23;;;;;;;0.30;0.30;;;2.20;99.90;;;;;;5034599;28;20535;-71
2021/01/12 03:57:49;;;;;;;0.30;0.20;;;2.20;99.90;;;;;;5037051;28;20170;-70
2021/01/12 04:00:15;;;;;;;0.30;0.30;;;2.20;99.90;;;;;;5035758;28;20228;-71
2021/01/12 04:02:41;;;;;;;0.30;0.30;;;2.20;99.90;;;;;;5054419;28;20287;-68
2021/01/12 04:05:07;;;;;;;0.30;0.30;;;2.20;99.90;;;;;;5042845;28;20214;-70
2021/01/12 04:07:34;;;;;;;0.30;0.30;;;2.30;99.90;;;;;;5034189;28;20197;-71
2021/01/12 04:10:00;;;;;;;0.30;0.30;;;2.30;99.90;;;;;;5032085;28;20208;-69
2021/01/12 04:12:26;;;;;;;0.30;0.30;;;2.30;99.90;;;;;;5052309;28;20217;-70
2021/01/12 04:14:51;;;;;;;0.30;0.30;;;2.40;99.90;;;;;;5053892;28;20173;-69
2021/01/12 04:17:17;;;;;;;0.30;0.30;;;2.40;99.90;;;;;;5052918;28;20185;-69
2021/01/12 04:19:43;;;;;;;0.30;0.30;;;2.40;99.90;;;;;;5044158;28;20181;-69
2021/01/12 04:22:08;;;;;;;0.30;0.30;;;2.40;99.90;;;;;;5051177;28;20228;-68
2021/01/12 04:24:34;;;;;;;0.40;0.40;;;2.40;99.90;;;;;;5053326;28;20201;-70
2021/01/12 04:27:00;;;;;;;0.30;0.20;;;2.40;99.90;;;;;;5051125;28;20183;-70
2021/01/12 04:29:25;;;;;;;0.40;0.40;;;2.50;99.90;;;;;;5033410;28;20170;-70
2021/01/12 04:31:51;;;;;;;0.40;0.40;;;2.50;99.90;;;;;;5048656;28;20232;-69
2021/01/12 04:34:16;;;;;;;0.30;0.30;;;2.50;99.90;;;;;;5052855;28;20173;-70
2021/01/12 04:36:42;;;;;;;0.40;0.40;;;2.50;99.90;;;;;;5053435;28;20526;-69
2021/01/12 04:39:08;;;;;;;0.40;0.40;;;2.50;99.90;;;;;;5052999;28;20634;-70
2021/01/12 04:41:33;;;;;;;0.30;0.30;;;2.50;99.90;;;;;;5052948;28;20346;-70
2021/01/12 04:43:59;;;;;;;0.30;0.30;;;2.60;99.90;;;;;;5056214;28;20184;-71
2021/01/12 04:46:24;;;;;;;0.30;0.30;;;2.60;99.90;;;;;;5057141;28;20177;-70
2021/01/12 04:48:50;;;;;;;0.30;0.30;;;2.60;99.90;;;;;;5057132;28;20208;-69
2021/01/12 04:51:16;;;;;;;0.40;0.40;;;2.60;99.90;;;;;;5056163;28;20192;-70
2021/01/12 04:53:46;;;;;;;0.30;0.30;;;2.60;99.90;;;;;;5055642;28;20201;-71
2021/01/12 04:56:19;;;;;;;0.30;0.25;;;2.60;99.90;;;;;;5037282;28;20573;-70
2021/01/12 04:58:54;;;;;;;0.30;0.30;;;2.60;99.90;;;;;;5047633;28;20577;-69
2021/01/12 05:01:22;;;;;;;0.30;0.30;;;2.60;99.90;;;;;;5036303;28;20590;-68
2021/01/12 05:03:56;;;;;;;0.30;0.30;;;2.50;99.90;;;;;;5035525;28;20176;-69
2021/01/12 05:06:25;;;;;;;0.30;0.30;;;2.50;99.90;;;;;;5036715;28;20192;-69
2021/01/12 05:08:55;;;;;;;0.30;0.30;;;2.40;99.90;;;;;;5035561;28;20617;-70
2021/01/12 05:11:29;;;;;;;0.30;0.30;;;2.40;99.90;;;;;;5056510;28;20665;-70
2021/01/12 05:13:56;;;;;;;0.30;0.20;;;2.40;99.90;;;;;;5060812;28;20200;-69
2021/01/12 05:16:25;;;;;;;0.30;0.30;;;2.40;99.90;;;;;;5056498;28;20231;-71
2021/01/12 05:18:53;;;;;;;0.30;0.30;;;2.40;99.90;;;;;;5054933;28;20278;-70
2021/01/12 05:21:19;;;;;;;0.30;0.30;;;2.40;99.90;;;;;;5055841;28;20734;-70
2021/01/12 05:23:59;;;;;;;0.30;0.30;;;2.40;99.90;;;;;;5056314;28;20280;-70
2021/01/12 05:26:35;;;;;;;0.30;0.30;;;2.40;99.90;;;;;;5056244;28;20173;-70
2021/01/12 05:29:02;;;;;;;0.30;0.30;;;2.40;99.90;;;;;;5049187;28;20288;-69
2021/01/12 05:31:29;;;;;;;0.30;0.30;;;2.40;99.90;;;;;;5055896;28;20189;-70
2021/01/12 05:33:56;;;;;;;0.30;0.30;;;2.40;99.90;;;;;;5056072;28;20162;-69
2021/01/12 05:36:22;;;;;;;0.30;0.30;;;2.40;99.90;;;;;;5056768;28;20176;-69
2021/01/12 05:38:48;;;;;;;0.45;0.45;;;2.40;99.90;;;;;;5055979;28;20165;-70
2021/01/12 05:41:14;;;;;;;0.30;0.30;;;2.40;99.90;;;;;;5055849;28;20196;-68
2021/01/12 05:43:44;;;;;;;0.30;0.30;;;2.40;99.90;;;;;;5047265;28;20185;-68
2021/01/12 05:46:15;;;;;;;0.30;0.30;;;2.40;99.90;;;;;;5042833;28;20253;-69
2021/01/12 05:48:44;;;;;;;0.68;0.68;;;2.40;99.90;;;;;;5036188;28;20205;-69
2021/01/12 05:51:11;;;;;;;0.30;0.30;;;2.40;99.90;;;;;;5052916;28;20205;-68
2021/01/12 05:54:03;;;;;;;0.30;0.30;;;2.40;99.90;;;;;;5055522;28;20194;-69
2021/01/12 05:56:31;;;;;;;0.30;0.30;;;2.40;99.90;;;;;;5035910;28;20166;-71
2021/01/12 05:58:58;;;;;;;0.30;0.30;;;2.40;99.90;;;;;;5048524;28;20537;-70
2021/01/12 06:01:30;;;;;;;0.30;0.30;;;2.40;99.90;;;;;;5054764;28;20205;-69
2021/01/12 06:03:57;;;;;;;0.38;0.38;;;2.40;99.90;;;;;;5056114;28;20177;-68
2021/01/12 06:06:23;;;;;;;0.30;0.30;;;2.50;99.90;;;;;;5055285;28;20232;-70
2021/01/12 06:08:50;;;;;;;0.38;0.38;;;2.50;99.90;;;;;;5055803;28;20292;-69
2021/01/12 06:11:18;;;;;;;0.40;0.40;;;2.50;99.90;;;;;;5054829;28;20243;-70
2021/01/12 06:13:54;;;;;;;0.30;0.30;;;2.50;99.90;;;;;;5054472;28;20193;-70
2021/01/12 06:16:23;;;;;;;0.30;0.30;;;2.50;99.90;;;;;;5055173;28;20192;-70
2021/01/12 06:19:12;;;;;;;0.30;0.30;;;2.60;99.90;;;;;;5055128;28;20176;-70
2021/01/12 06:21:54;;;;;;;0.30;0.30;;;2.60;99.90;;;;;;5035063;28;20208;-72
2021/01/12 06:24:37;;;;;;;0.30;0.30;;;2.70;99.90;;;;;;5050648;28;20168;-74
2021/01/12 06:27:06;;;;;;;0.63;0.63;;;2.70;99.90;;;;;;5053911;28;20180;-69
2021/01/12 06:29:33;;;;;;;0.30;0.30;;;2.80;99.90;;;;;;5054923;28;20169;-71
2021/01/12 06:31:59;;;;;;;0.30;0.20;;;2.90;99.90;;;;;;5054776;28;20189;-70
2021/01/12 06:34:25;;;;;;;0.43;0.43;;;2.90;99.90;;;;;;5053409;28;20661;-73
2021/01/12 06:37:03;;;;;;;0.80;0.80;;;2.90;99.90;;;;;;5053622;28;20416;-67
2021/01/12 06:39:39;;;;;;;0.40;0.40;;;2.90;99.90;;;;;;5033406;28;20421;-71
2021/01/12 06:42:05;;;;;;;0.30;0.30;;;2.90;99.90;;;;;;5047504;28;20603;-69
2021/01/12 06:44:34;;;;;;;0.30;0.30;;;2.90;99.90;;;;;;5059294;28;20514;-70
2021/01/12 06:47:02;;;;;;;0.30;0.30;;;2.90;99.90;;;;;;5054187;28;20174;-70
2021/01/12 06:49:28;;;;;;;0.30;0.30;;;2.80;99.90;;;;;;5054788;28;20165;-71
2021/01/12 06:52:09;;;;;;;0.30;0.30;;;2.80;99.90;;;;;;5054036;28;20607;-70
2021/01/12 06:54:48;;;;;;;0.30;0.30;;;2.80;99.90;;;;;;5053531;28;20473;-69
2021/01/12 06:57:24;;;;;;;0.30;0.30;;;2.80;99.90;;;;;;5053612;28;20181;-73
2021/01/12 06:59:54;;;;;;;0.68;0.68;;;2.80;99.90;;;;;;5052162;28;20173;-73
2021/01/12 07:02:31;;;;;;;0.30;0.20;;;2.80;99.90;;;;;;5054657;28;20264;-75
2021/01/12 07:05:06;;;;;;;0.90;0.85;;;2.80;99.90;;;;;;5057070;28;20189;-69
2021/01/12 07:07:45;;;;;;;0.30;0.30;;;2.90;99.90;;;;;;5054758;28;20200;-72
2021/01/12 07:10:13;;;;;;;0.30;0.30;;;2.90;99.90;;;;;;5053416;28;20204;-71
2021/01/12 07:12:40;;;;;;;0.30;0.30;;;2.90;99.90;;;;;;5054420;28;20193;-70
2021/01/12 07:15:07;;;;;;;0.30;0.30;;;2.90;99.90;;;;;;5054285;28;20252;-71
2021/01/12 07:17:48;;;;;;;0.30;0.30;;;3.00;99.90;;;;;;5046395;28;20162;-71
2021/01/12 07:20:25;;;;;;;0.30;0.30;;;3.00;99.90;;;;;;5045570;28;20582;-71
2021/01/12 07:22:52;;;;;;;0.40;0.40;;;3.00;99.90;;;;;;5054060;28;20193;-70
2021/01/12 07:25:29;;;;;;;0.40;0.40;;;3.00;99.90;;;;;;5053986;28;20177;-70
2021/01/12 07:28:15;;;;;;;0.30;0.30;;;3.10;99.90;;;;;;5054234;28;20560;-72
2021/01/12 07:30:43;;;;;;;0.30;0.30;;;3.10;99.90;;;;;;5052719;28;20529;-71
2021/01/12 07:33:19;;;;;;;0.57;0.57;;;3.10;99.90;;;;;;5052010;28;20193;-70
2021/01/12 07:35:47;;;;;;;0.40;0.40;;;3.10;99.90;;;;;;5038608;28;20638;-74
2021/01/12 07:38:17;;;;;;;0.30;0.30;;;3.10;99.90;;;;;;5048828;28;20182;-74
2021/01/12 07:40:43;;;;;;;0.30;0.30;;;3.10;99.90;;;;;;5052324;28;20231;-73
2021/01/12 07:43:20;;;;;;;0.30;0.30;;;3.10;99.90;;;;;;5052604;28;20228;-72
2021/01/12 07:45:50;;;;;;;0.30;0.30;;;3.20;99.90;;;;;;5053974;28;20562;-72
2021/01/12 07:48:16;;;;;;;0.30;0.30;;;3.10;99.90;;;;;;5053825;28;20201;-71
2021/01/12 07:50:44;;;;;;;0.30;0.30;;;3.10;99.90;;;;;;5053315;28;20201;-71
2021/01/12 07:53:09;;;;;;;1.95;1.10;;;3.10;99.90;;;;;;5036920;28;20772;-69
2021/01/12 07:55:45;;;;;;;0.30;0.30;;;3.20;99.90;;;;;;5033780;28;20181;-70
2021/01/12 07:58:17;;;;;;;0.30;0.30;;;3.20;99.90;;;;;;5032527;28;20177;-73
2021/01/12 08:00:44;;;;;;;0.30;0.30;;;3.20;99.90;;;;;;5042304;28;20173;-72
2021/01/12 08:03:09;;;;;;;0.30;0.30;;;3.20;99.90;;;;;;5052229;28;20197;-72
2021/01/12 08:05:35;;;;;;;0.30;0.30;;;3.20;99.90;;;;;;5053383;28;20687;-71
2021/01/12 08:08:03;;;;;;;0.30;0.30;;;3.20;99.90;;;;;;5052267;28;20538;-72
2021/01/12 08:10:33;;;;;;;0.30;0.30;;;3.30;99.90;;;;;;5038550;28;20174;-71
2021/01/12 08:13:04;;;;;;;0.30;0.30;;;3.30;99.90;;;;;;5032184;28;20701;-71
2021/01/12 08:15:30;;;;;;;0.30;0.30;;;3.30;99.90;;;;;;5032042;28;20174;-72
2021/01/12 08:17:56;;;;;;;0.60;0.60;;;3.30;99.90;;;;;;5033758;28;20177;-70
2021/01/12 08:20:23;;;;;;;0.30;0.30;;;3.40;99.90;;;;;;5033224;28;20440;-70
2021/01/12 08:22:50;;;;;;;0.30;0.30;;;3.40;99.90;;;;;;5033572;28;20190;-74
2021/01/12 08:25:16;;;;;;;0.30;0.30;;;3.40;99.90;;;;;;5033707;28;20265;-71
2021/01/12 08:27:47;;;;;;;0.30;0.30;;;3.40;99.90;;;;;;5045914;28;20240;-73
2021/01/12 08:30:14;;;;;;;0.40;0.40;;;3.40;99.90;;;;;;5052421;28;20221;-72
2021/01/12 08:32:45;;;;;;;0.30;0.30;;;3.40;99.90;;;;;;5052166;28;20260;-73
2021/01/12 08:35:12;;;;;;;0.30;0.30;;;3.40;99.90;;;;;;5051830;28;20169;-69
2021/01/12 08:37:41;;;;;;;0.30;0.30;;;3.40;99.90;;;;;;5053770;28;20169;-70
2021/01/12 08:40:09;;;;;;;0.30;0.30;;;3.40;99.90;;;;;;5052218;28;20165;-73
2021/01/12 08:42:40;;;;;;;0.35;0.35;;;3.50;99.90;;;;;;5052008;28;20185;-70
2021/01/12 08:45:16;;;;;;;0.30;0.20;;;3.50;99.90;;;;;;5051200;28;20165;-71
2021/01/12 08:47:45;;;;;;;0.30;0.30;;;3.50;99.90;;;;;;5049554;28;20193;-70
2021/01/12 08:50:11;;;;;;;0.30;0.30;;;3.50;99.90;;;;;;5049849;28;20166;-72
2021/01/12 08:52:39;;;;;;;0.30;0.30;;;3.50;99.90;;;;;;5049767;28;20197;-73
2021/01/12 08:55:18;;;;;;;0.30;0.30;;;3.60;99.90;;;;;;5049551;28;20172;-71
2021/01/12 08:57:58;;;;;;;0.30;0.30;;;3.60;99.90;;;;;;5031604;28;20178;-68
2021/01/12 09:00:35;;;;;;;0.30;0.30;;;3.60;99.90;;;;;;5032788;28;20525;-71
2021/01/12 09:03:01;;;;;;;0.30;0.30;;;3.60;99.90;;;;;;5042716;28;20276;-71
2021/01/12 09:05:31;;;;;;;0.30;0.30;;;3.70;99.90;;;;;;5032284;28;20213;-73
2021/01/12 09:08:01;;;;;;;0.30;0.28;;;3.70;99.90;;;;;;5038312;28;20201;-71
2021/01/12 09:10:28;;;;;;;0.30;0.30;;;3.80;99.90;;;;;;5052609;28;20193;-70
2021/01/12 09:12:54;;;;;;;0.30;0.30;;;3.80;99.90;;;;;;5052895;28;20610;-71
2021/01/12 09:15:31;;;;;;;0.30;0.30;;;3.80;99.90;;;;;;5055175;28;20649;-71
2021/01/12 09:18:09;;;;;;;0.30;0.30;;;3.70;99.90;;;;;;5058247;28;20173;-70
2021/01/12 09:20:38;;;;;;;0.30;0.30;;;3.70;99.90;;;;;;5037044;28;20233;-72
2021/01/12 09:23:05;;;;;;;0.50;0.50;;;3.80;99.90;;;;;;5032770;28;20186;-74
2021/01/12 09:25:32;;;;;;;0.30;0.30;;;3.80;99.90;;;;;;5032695;28;20220;-70
2021/01/12 09:28:10;;;;;;;0.30;0.30;;;3.80;99.90;;;;;;5033712;28;20192;-71
2021/01/12 09:30:35;;;;;;;0.30;0.30;;;3.80;99.90;;;;;;5036228;28;20169;-70
2021/01/12 09:33:01;;;;;;;0.30;0.30;;;3.80;99.90;;;;;;5036360;28;20204;-74
2021/01/12 09:35:27;;;;;;;0.30;0.30;;;3.90;99.90;;;;;;5051754;28;20208;-72
2021/01/12 09:37:59;;;;;;;0.30;0.30;;;3.80;99.90;;;;;;5056516;28;20173;-71
2021/01/12 09:40:26;;;;;;;0.30;0.30;;;3.80;99.90;;;;;;5056007;28;20173;-71
2021/01/12 09:42:51;;;;;;;0.50;0.50;;;3.80;99.90;;;;;;5047342;28;20202;-70
2021/01/12 09:45:17;;;;;;;0.30;0.30;;;3.80;99.90;;;;;;5035007;28;20663;-71
2021/01/12 09:47:43;;;;;;;0.30;0.20;;;3.80;99.90;;;;;;5036307;28;20194;-71
2021/01/12 09:50:09;;;;;;;0.30;0.30;;;3.80;99.90;;;;;;5035869;28;20638;-72
2021/01/12 09:52:35;;;;;;;0.40;0.40;;;3.70;99.90;;;;;;5036036;28;20181;-68
2021/01/12 09:55:01;;;;;;;0.30;0.30;;;3.70;99.90;;;;;;5050808;28;20303;-71
2021/01/12 09:57:27;;;;;;;0.30;0.30;;;3.70;99.90;;;;;;5055990;28;20176;-72
2021/01/12 09:59:53;;;;;;;0.30;0.30;;;3.70;99.90;;;;;;5046635;28;20257;-71
2021/01/12 10:02:18;;;;;;;0.30;0.30;;;3.70;99.90;;;;;;5036132;28;20190;-71
2021/01/12 10:04:45;;;;;;;0.30;0.30;;;3.60;99.90;;;;;;5036047;28;20638;-71
2021/01/12 10:07:11;;;;;;;0.30;0.30;;;3.50;99.90;;;;;;5034660;28;20174;-73
2021/01/12 10:09:37;;;;;;;0.30;0.30;;;3.50;99.90;;;;;;5035824;28;20169;-67
2021/01/12 10:12:04;;;;;;;0.30;0.30;;;3.40;99.90;;;;;;5035300;28;20277;-73
2021/01/12 10:14:30;;;;;;;0.30;0.30;;;3.40;99.90;;;;;;5047827;28;20260;-71
2021/01/12 10:16:55;;;;;;;2.00;1.13;;;3.30;99.90;;;;;;5055987;28;20564;-70
2021/01/12 10:19:21;;;;;;;0.30;0.30;;;3.30;99.90;;;;;;5055550;28;20169;-70
2021/01/12 10:21:50;;;;;;;0.30;0.30;;;3.30;99.90;;;;;;5053767;28;20193;-71
2021/01/12 10:24:16;;;;;;;0.30;0.22;;;3.30;99.90;;;;;;5043183;28;20174;-71
2021/01/12 10:26:43;;;;;;;0.30;0.30;;;3.30;99.90;;;;;;5055494;28;20197;-72
2021/01/12 10:29:09;;;;;;;0.30;0.30;;;3.30;99.90;;;;;;5055556;28;20223;-70
2021/01/12 10:31:35;;;;;;;0.30;0.30;;;3.30;99.90;;;;;;5056142;28;20213;-70
2021/01/12 10:34:00;;;;;;;0.30;0.30;;;3.40;99.90;;;;;;5057115;28;20901;-71
2021/01/12 10:36:26;;;;;;;0.30;0.20;;;3.40;99.90;;;;;;5061415;28;20411;-72
2021/01/12 10:38:52;;;;;;;0.30;0.30;;;3.30;99.90;;;;;;5060043;28;20197;-70
2021/01/12 10:41:17;;;;;;;0.30;0.30;;;3.30;99.90;;;;;;5058329;28;20197;-71
2021/01/12 10:43:43;;;;;;;0.30;0.30;;;3.40;99.90;;;;;;5038068;28;20174;-70
2021/01/12 10:46:10;;;;;;;0.30;0.30;;;3.40;99.90;;;;;;5035689;28;20530;-70
2021/01/12 10:48:35;;;;;;;0.30;0.20;;;3.40;99.90;;;;;;5036161;28;20197;-71
2021/01/12 10:51:01;;;;;;;0.30;0.30;;;3.40;99.90;;;;;;5036523;28;20170;-68
2021/01/12 10:53:27;;;;;;;0.30;0.30;;;3.50;99.90;;;;;;5035749;28;20193;-72
2021/01/12 10:55:53;;;;;;;0.30;0.30;;;3.50;99.90;;;;;;5035922;28;20182;-71
2021/01/12 10:58:18;;;;;;;0.30;0.30;;;3.50;99.90;;;;;;5035773;28;20408;-71
2021/01/12 11:00:47;;;;;;;0.30;0.30;;;3.50;99.90;;;;;;5034511;28;20573;-71
2021/01/12 11:03:12;;;;;;;0.65;0.65;;;3.50;99.90;;;;;;5052318;28;20453;-72
2021/01/12 11:05:39;;;;;;;0.30;0.30;;;3.50;99.90;;;;;;5054859;28;20182;-73
2021/01/12 11:08:05;;;;;;;0.30;0.20;;;3.60;99.90;;;;;;5054570;28;20204;-69
2021/01/12 11:10:31;;;;;;;0.30;0.30;;;3.60;99.90;;;;;;5054119;28;20176;-69
2021/01/12 11:12:59;;;;;;;0.30;0.30;;;3.60;99.90;;;;;;5054384;28;20189;-69
2021/01/12 11:15:29;;;;;;;0.30;0.28;;;3.60;99.90;;;;;;5053195;28;20892;-72
2021/01/12 11:17:54;;;;;;;0.30;0.30;;;3.70;99.90;;;;;;5036281;28;20256;-69
2021/01/12 11:20:21;;;;;;;0.30;0.30;;;3.80;99.90;;;;;;5034317;28;20170;-73
2021/01/12 11:22:46;;;;;;;0.30;0.30;;;3.70;99.90;;;;;;5034334;28;20189;-70
2021/01/12 11:25:14;;;;;;;0.30;0.30;;;3.70;99.90;;;;;;5033093;28;20181;-70
2021/01/12 11:27:40;;;;;;;0.30;0.30;;;3.70;99.90;;;;;;5034502;28;20197;-68
2021/01/12 11:30:08;;;;;;;0.30;0.30;;;3.60;99.90;;;;;;5033929;28;20174;-70
2021/01/12 11:32:34;;;;;;;1.10;1.10;;;3.70;99.90;;;;;;5037720;28;20956;-71
2021/01/12 11:35:00;;;;;;;0.30;0.30;;;3.70;99.90;;;;;;5032774;28;20232;-72
2021/01/12 11:37:29;;;;;;;0.30;0.30;;;3.80;99.90;;;;;;5034114;28;20170;-71
2021/01/12 11:39:58;;;;;;;0.30;0.30;;;3.80;99.90;;;;;;5033793;28;20185;-69
2021/01/12 11:42:24;;;;;;;0.30;0.30;;;3.80;99.90;;;;;;5034264;28;20204;-72
2021/01/12 11:44:49;;;;;;;0.37;0.37;;;3.80;99.90;;;;;;5034425;28;20166;-71
2021/01/12 11:47:15;;;;;;;0.30;0.30;;;3.80;99.90;;;;;;5036181;28;20421;-71
2021/01/12 11:49:41;;;;;;;0.30;0.30;;;3.90;99.90;;;;;;5034941;28;20170;-71
2021/01/12 11:52:08;;;;;;;0.30;0.30;;;3.80;99.90;;;;;;5034000;28;20186;-70
2021/01/12 11:54:34;;;;;;;0.30;0.30;;;3.80;99.90;;;;;;5034597;28;20170;-70
2021/01/12 11:57:00;;;;;;;0.30;0.30;;;3.90;99.90;;;;;;5034502;28;20162;-72
2021/01/12 11:59:34;;;;;;;0.30;0.30;;;3.90;99.90;;;;;;5034653;28;20166;-70
2021/01/12 12:01:59;;;;;;;0.30;0.30;;;3.80;99.90;;;;;;5034420;28;20182;-71
2021/01/12 12:04:26;;;;;;;0.30;0.30;;;3.80;99.90;;;;;;5033462;28;20276;-73
2021/01/12 12:07:03;;;;;;;0.30;0.30;;;3.80;99.90;;;;;;5048934;28;20181;-72
2021/01/12 12:09:31;;;;;;;0.40;0.40;;;3.90;99.90;;;;;;5055457;28;20205;-70
2021/01/12 12:11:57;;;;;;;0.30;0.30;;;3.80;99.90;;;;;;5054855;28;20178;-73
2021/01/12 12:14:23;;;;;;;0.30;0.30;;;3.80;99.90;;;;;;5049488;28;20216;-71
2021/01/12 12:16:48;;;;;;;0.30;0.30;;;3.80;99.90;;;;;;5034036;28;20800;-70
2021/01/12 12:19:18;;;;;;;0.30;0.30;;;3.90;99.90;;;;;;5033612;28;20472;-71
2021/01/12 12:21:55;;;;;;;0.30;0.30;;;3.90;99.90;;;;;;5033028;28;20620;-70
2021/01/12 12:24:22;;;;;;;0.30;0.30;;;3.90;99.90;;;;;;5033848;28;20178;-69
2021/01/12 12:26:50;;;;;;;0.30;0.30;;;4.00;99.90;;;;;;5033530;28;20166;-69
2021/01/12 12:29:16;;;;;;;0.30;0.30;;;4.00;99.90;;;;;;5033623;28;20236;-72
2021/01/12 12:31:42;;;;;;;0.30;0.30;;;4.00;99.90;;;;;;5033290;28;20186;-72
2021/01/12 12:34:08;;;;;;;0.30;0.30;;;4.00;99.90;;;;;;5033526;28;20800;-72
2021/01/12 12:36:34;;;;;;;0.30;0.30;;;4.00;99.90;;;;;;5033483;28;20484;-73
2021/01/12 12:38:59;;;;;;;0.30;0.30;;;4.00;99.90;;;;;;5050462;28;20356;-70
2021/01/12 12:41:26;;;;;;;0.40;0.40;;;4.00;99.90;;;;;;5052568;28;20827;-70
2021/01/12 12:43:52;;;;;;;0.35;0.35;;;4.00;99.90;;;;;;5053133;28;20460;-69
2021/01/12 12:46:18;;;;;;;0.30;0.30;;;4.00;99.90;;;;;;5053228;28;20247;-69
2021/01/12 12:48:45;;;;;;;0.30;0.30;;;4.10;99.90;;;;;;5051616;28;20204;-70
2021/01/12 12:51:13;;;;;;;0.30;0.30;;;4.10;99.90;;;;;;5052733;28;20211;-71
2021/01/12 12:53:41;;;;;;;0.30;0.30;;;4.10;99.90;;;;;;5052551;28;20173;-71
2021/01/12 12:56:11;;;;;;;0.30;0.30;;;4.00;99.90;;;;;;5052993;28;20168;-71
2021/01/12 12:58:37;;;;;;;0.50;0.50;;;4.00;99.90;;;;;;5052960;28;20165;-72
2021/01/12 13:01:02;;;;;;;0.30;0.30;;;4.00;99.90;;;;;;5055399;28;20173;-74